Ashland, Wisconsin
Current Conditions -  °F | °C
As of 5:53 PM on Wednesday 22 Oct 2014 (Local Time) from KASX Reporting Station
Broken Clouds Broken Clouds  
Wind Chill: 57°   Ceiling: 8500
Heat Index: 57°   Visibility: 10mi
Dew Point: 30°   Wind: 8mph
Humidity: 36%   Direction: 180°S
Pressure: 30.09"   Gusts: NA
Location:  46.59°N, 90.89°W
Report Text: KASX 222253Z AUTO 18007KT 10SM FEW055 BKN085 14/M01 A3009 RMK AO2 SLP198 T01391011
Loading
Personal Weather Stations






























Interactive Weather Map
Tropical Storm Tracking
New forecast layout! Learn more

10-Day Weather Forecast

Advertisements
Track Severe Weather on mobile